Terminal Aerodrome Forecast
Issued by NWS Grand Forks, ND

Home | Current Version | Previous Version | Text Only | Print | Product List | Glossary On
Versions: 1 2 3 4 5 6 7 8 9 10 11 12 13 14 15 16 17 18 19 20 21
000
FTUS43 KFGF 302328
TAFGFK
TAF
KGFK 302328Z 3100/3124 36009KT P6SM -TSRA SCT060CB OVC090
     FM310100 10008KT P6SM VCTS BKN090CB OVC200
     FM310500 10009KT P6SM -TSRA BKN090CB
     FM311000 14009KT P6SM VCSH BKN015
     FM311200 20012KT P6SM BKN025
     FM311500 19012KT P6SM BKN040
     FM312300 19014KT P6SM SCT120=

USA.gov is the U.S. government's official web portal to all federal, state and local government web resources and services.